sensor_id;sensor_type;location;lat;lon;timestamp;P1;durP1;ratioP1;P2;durP2;ratioP2
14078;SDS011;7115;50.150;8.568;2023-03-31T00:01:59;7.17;;;1.70;;
14078;SDS011;7115;50.150;8.568;2023-03-31T00:04:27;8.80;;;1.60;;
14078;SDS011;7115;50.150;8.568;2023-03-31T00:06:58;6.40;;;1.60;;
14078;SDS011;7115;50.150;8.568;2023-03-31T00:09:25;10.27;;;1.37;;
14078;SDS011;7115;50.150;8.568;2023-03-31T00:11:55;5.97;;;1.57;;
14078;SDS011;7115;50.150;8.568;2023-03-31T00:14:22;3.40;;;1.40;;
14078;SDS011;7115;50.150;8.568;2023-03-31T00:16:48;9.03;;;1.80;;
14078;SDS011;7115;50.150;8.568;2023-03-31T00:19:16;4.37;;;1.20;;
14078;SDS011;7115;50.150;8.568;2023-03-31T00:21:47;8.77;;;1.93;;
14078;SDS011;7115;50.150;8.568;2023-03-31T00:24:16;5.63;;;1.30;;
14078;SDS011;7115;50.150;8.568;2023-03-31T00:26:43;8.60;;;1.63;;
14078;SDS011;7115;50.150;8.568;2023-03-31T00:29:11;3.17;;;1.40;;
14078;SDS011;7115;50.150;8.568;2023-03-31T00:31:38;10.00;;;1.53;;
14078;SDS011;7115;50.150;8.568;2023-03-31T00:34:05;6.77;;;1.60;;
14078;SDS011;7115;50.150;8.568;2023-03-31T00:36:32;7.03;;;1.50;;
14078;SDS011;7115;50.150;8.568;2023-03-31T00:39:02;8.00;;;2.10;;
14078;SDS011;7115;50.150;8.568;2023-03-31T00:41:36;9.00;;;1.67;;
14078;SDS011;7115;50.150;8.568;2023-03-31T00:44:06;7.27;;;1.63;;
14078;SDS011;7115;50.150;8.568;2023-03-31T00:46:36;9.60;;;1.93;;
14078;SDS011;7115;50.150;8.568;2023-03-31T00:49:15;10.63;;;2.03;;
14078;SDS011;7115;50.150;8.568;2023-03-31T00:51:46;4.97;;;1.50;;
14078;SDS011;7115;50.150;8.568;2023-03-31T00:54:16;7.53;;;1.40;;
14078;SDS011;7115;50.150;8.568;2023-03-31T00:56:46;7.13;;;1.50;;
14078;SDS011;7115;50.150;8.568;2023-03-31T00:59:18;8.00;;;1.70;;
14078;SDS011;7115;50.150;8.568;2023-03-31T01:01:46;5.80;;;1.70;;
14078;SDS011;7115;50.150;8.568;2023-03-31T01:04:15;8.50;;;1.60;;
14078;SDS011;7115;50.150;8.568;2023-03-31T01:06:49;3.73;;;1.50;;
14078;SDS011;7115;50.150;8.568;2023-03-31T01:09:22;6.23;;;1.93;;
14078;SDS011;7115;50.150;8.568;2023-03-31T01:11:51;8.80;;;1.77;;
14078;SDS011;7115;50.150;8.568;2023-03-31T01:14:18;5.70;;;1.37;;
14078;SDS011;7115;50.150;8.568;2023-03-31T01:16:45;5.67;;;1.80;;
14078;SDS011;7115;50.150;8.568;2023-03-31T01:19:14;5.47;;;1.60;;
14078;SDS011;7115;50.150;8.568;2023-03-31T01:22:04;5.43;;;1.43;;
14078;SDS011;7115;50.150;8.568;2023-03-31T01:27:53;8.43;;;1.73;;
14078;SDS011;7115;50.150;8.568;2023-03-31T01:30:46;4.87;;;1.73;;
14078;SDS011;7115;50.150;8.568;2023-03-31T01:33:48;8.47;;;1.80;;
14078;SDS011;7115;50.150;8.568;2023-03-31T01:37:10;10.23;;;2.03;;
14078;SDS011;7115;50.150;8.568;2023-03-31T01:40:03;8.27;;;2.20;;
14078;SDS011;7115;50.150;8.568;2023-03-31T01:42:38;4.20;;;1.57;;
14078;SDS011;7115;50.150;8.568;2023-03-31T01:45:13;5.53;;;1.70;;
14078;SDS011;7115;50.150;8.568;2023-03-31T01:47:48;7.93;;;2.03;;
14078;SDS011;7115;50.150;8.568;2023-03-31T01:50:25;5.37;;;1.30;;
14078;SDS011;7115;50.150;8.568;2023-03-31T01:52:56;5.10;;;1.67;;
14078;SDS011;7115;50.150;8.568;2023-03-31T01:55:30;9.70;;;1.90;;
14078;SDS011;7115;50.150;8.568;2023-03-31T01:58:02;9.87;;;1.90;;
14078;SDS011;7115;50.150;8.568;2023-03-31T02:00:37;6.83;;;1.67;;
14078;SDS011;7115;50.150;8.568;2023-03-31T02:03:08;9.17;;;1.87;;
14078;SDS011;7115;50.150;8.568;2023-03-31T02:05:43;6.93;;;1.97;;
14078;SDS011;7115;50.150;8.568;2023-03-31T02:08:13;11.30;;;2.43;;
14078;SDS011;7115;50.150;8.568;2023-03-31T02:10:47;9.67;;;2.47;;
14078;SDS011;7115;50.150;8.568;2023-03-31T02:13:15;7.13;;;2.30;;
14078;SDS011;7115;50.150;8.568;2023-03-31T02:15:46;8.37;;;1.97;;
14078;SDS011;7115;50.150;8.568;2023-03-31T02:18:17;7.93;;;2.33;;
14078;SDS011;7115;50.150;8.568;2023-03-31T02:20:47;4.53;;;2.20;;
14078;SDS011;7115;50.150;8.568;2023-03-31T02:23:15;4.23;;;1.73;;
14078;SDS011;7115;50.150;8.568;2023-03-31T02:25:46;10.60;;;1.77;;
14078;SDS011;7115;50.150;8.568;2023-03-31T02:28:17;4.20;;;1.43;;
14078;SDS011;7115;50.150;8.568;2023-03-31T02:30:49;8.67;;;1.93;;
14078;SDS011;7115;50.150;8.568;2023-03-31T02:33:21;5.03;;;1.50;;
14078;SDS011;7115;50.150;8.568;2023-03-31T02:35:48;7.83;;;1.50;;
14078;SDS011;7115;50.150;8.568;2023-03-31T02:38:16;10.23;;;1.83;;
14078;SDS011;7115;50.150;8.568;2023-03-31T02:40:43;6.33;;;1.93;;
14078;SDS011;7115;50.150;8.568;2023-03-31T02:43:12;6.57;;;1.60;;
14078;SDS011;7115;50.150;8.568;2023-03-31T02:45:40;12.03;;;1.90;;
14078;SDS011;7115;50.150;8.568;2023-03-31T02:48:10;8.63;;;2.17;;
14078;SDS011;7115;50.150;8.568;2023-03-31T02:50:47;7.63;;;2.23;;
14078;SDS011;7115;50.150;8.568;2023-03-31T02:53:39;3.77;;;1.60;;
14078;SDS011;7115;50.150;8.568;2023-03-31T02:56:21;6.13;;;1.90;;
14078;SDS011;7115;50.150;8.568;2023-03-31T02:59:06;7.00;;;2.27;;
14078;SDS011;7115;50.150;8.568;2023-03-31T03:01:44;9.47;;;2.23;;
14078;SDS011;7115;50.150;8.568;2023-03-31T03:04:32;8.93;;;1.90;;
14078;SDS011;7115;50.150;8.568;2023-03-31T03:07:10;6.33;;;1.97;;
14078;SDS011;7115;50.150;8.568;2023-03-31T03:09:43;6.20;;;1.90;;
14078;SDS011;7115;50.150;8.568;2023-03-31T03:12:21;7.07;;;1.80;;
14078;SDS011;7115;50.150;8.568;2023-03-31T03:14:52;7.50;;;2.10;;
14078;SDS011;7115;50.150;8.568;2023-03-31T03:17:25;4.03;;;2.03;;
14078;SDS011;7115;50.150;8.568;2023-03-31T03:19:56;9.60;;;2.47;;
14078;SDS011;7115;50.150;8.568;2023-03-31T03:22:26;4.30;;;1.60;;
14078;SDS011;7115;50.150;8.568;2023-03-31T03:24:53;8.67;;;1.60;;
14078;SDS011;7115;50.150;8.568;2023-03-31T03:27:20;9.10;;;2.00;;
14078;SDS011;7115;50.150;8.568;2023-03-31T03:29:48;7.00;;;1.90;;
14078;SDS011;7115;50.150;8.568;2023-03-31T03:32:16;8.13;;;1.90;;
14078;SDS011;7115;50.150;8.568;2023-03-31T03:34:43;4.63;;;1.60;;
14078;SDS011;7115;50.150;8.568;2023-03-31T03:37:10;10.20;;;2.23;;
14078;SDS011;7115;50.150;8.568;2023-03-31T03:39:36;8.70;;;1.97;;
14078;SDS011;7115;50.150;8.568;2023-03-31T03:42:03;9.97;;;2.00;;
14078;SDS011;7115;50.150;8.568;2023-03-31T03:44:31;10.43;;;2.53;;
14078;SDS011;7115;50.150;8.568;2023-03-31T03:46:58;11.80;;;2.13;;
14078;SDS011;7115;50.150;8.568;2023-03-31T03:49:26;8.73;;;2.03;;
14078;SDS011;7115;50.150;8.568;2023-03-31T03:51:53;5.67;;;2.20;;
14078;SDS011;7115;50.150;8.568;2023-03-31T03:54:20;11.53;;;2.17;;
14078;SDS011;7115;50.150;8.568;2023-03-31T03:56:47;4.30;;;2.03;;
14078;SDS011;7115;50.150;8.568;2023-03-31T03:59:14;7.67;;;1.97;;
14078;SDS011;7115;50.150;8.568;2023-03-31T04:01:41;10.57;;;2.00;;
14078;SDS011;7115;50.150;8.568;2023-03-31T04:04:08;6.10;;;2.00;;
14078;SDS011;7115;50.150;8.568;2023-03-31T04:06:36;9.20;;;2.30;;
14078;SDS011;7115;50.150;8.568;2023-03-31T04:09:03;8.83;;;3.73;;
14078;SDS011;7115;50.150;8.568;2023-03-31T04:11:30;6.87;;;2.57;;
14078;SDS011;7115;50.150;8.568;2023-03-31T04:13:57;8.63;;;2.50;;
14078;SDS011;7115;50.150;8.568;2023-03-31T04:16:24;7.73;;;2.40;;
14078;SDS011;7115;50.150;8.568;2023-03-31T04:18:51;7.83;;;2.33;;
14078;SDS011;7115;50.150;8.568;2023-03-31T04:21:22;7.53;;;2.80;;
14078;SDS011;7115;50.150;8.568;2023-03-31T04:23:52;8.80;;;2.93;;
14078;SDS011;7115;50.150;8.568;2023-03-31T04:26:46;8.27;;;2.93;;
14078;SDS011;7115;50.150;8.568;2023-03-31T04:29:16;10.50;;;3.07;;
14078;SDS011;7115;50.150;8.568;2023-03-31T04:31:45;10.10;;;2.47;;
14078;SDS011;7115;50.150;8.568;2023-03-31T04:34:13;6.27;;;2.33;;
14078;SDS011;7115;50.150;8.568;2023-03-31T04:36:41;9.03;;;2.60;;
14078;SDS011;7115;50.150;8.568;2023-03-31T04:39:14;6.37;;;2.30;;
14078;SDS011;7115;50.150;8.568;2023-03-31T04:41:42;8.30;;;2.10;;
14078;SDS011;7115;50.150;8.568;2023-03-31T04:44:10;9.23;;;2.53;;
14078;SDS011;7115;50.150;8.568;2023-03-31T04:46:36;11.00;;;2.50;;
14078;SDS011;7115;50.150;8.568;2023-03-31T04:49:03;6.47;;;2.37;;
14078;SDS011;7115;50.150;8.568;2023-03-31T04:51:31;7.87;;;2.43;;
14078;SDS011;7115;50.150;8.568;2023-03-31T04:53:58;6.70;;;2.90;;
14078;SDS011;7115;50.150;8.568;2023-03-31T04:56:26;9.93;;;2.83;;
14078;SDS011;7115;50.150;8.568;2023-03-31T04:58:53;5.83;;;2.50;;
14078;SDS011;7115;50.150;8.568;2023-03-31T05:01:20;8.27;;;2.70;;
14078;SDS011;7115;50.150;8.568;2023-03-31T05:03:47;8.67;;;2.70;;
14078;SDS011;7115;50.150;8.568;2023-03-31T05:06:14;8.03;;;2.63;;
14078;SDS011;7115;50.150;8.568;2023-03-31T05:08:41;8.70;;;2.53;;
14078;SDS011;7115;50.150;8.568;2023-03-31T05:11:08;6.37;;;2.60;;
14078;SDS011;7115;50.150;8.568;2023-03-31T05:13:37;8.50;;;2.37;;
14078;SDS011;7115;50.150;8.568;2023-03-31T05:16:05;5.23;;;2.17;;
14078;SDS011;7115;50.150;8.568;2023-03-31T05:18:32;24.00;;;10.43;;
14078;SDS011;7115;50.150;8.568;2023-03-31T05:21:07;12.57;;;3.43;;
14078;SDS011;7115;50.150;8.568;2023-03-31T05:23:35;8.17;;;2.70;;
14078;SDS011;7115;50.150;8.568;2023-03-31T05:26:02;10.03;;;2.80;;
14078;SDS011;7115;50.150;8.568;2023-03-31T05:28:30;9.70;;;2.77;;
14078;SDS011;7115;50.150;8.568;2023-03-31T05:30:59;6.93;;;2.27;;
14078;SDS011;7115;50.150;8.568;2023-03-31T05:33:27;6.90;;;2.00;;
14078;SDS011;7115;50.150;8.568;2023-03-31T05:35:54;8.50;;;2.73;;
14078;SDS011;7115;50.150;8.568;2023-03-31T05:38:21;7.87;;;2.13;;
14078;SDS011;7115;50.150;8.568;2023-03-31T05:40:48;6.40;;;1.90;;
14078;SDS011;7115;50.150;8.568;2023-03-31T05:43:15;9.27;;;2.40;;
14078;SDS011;7115;50.150;8.568;2023-03-31T05:45:42;9.00;;;2.50;;
14078;SDS011;7115;50.150;8.568;2023-03-31T05:48:10;8.00;;;2.30;;
14078;SDS011;7115;50.150;8.568;2023-03-31T05:50:37;9.97;;;2.40;;
14078;SDS011;7115;50.150;8.568;2023-03-31T05:53:04;8.90;;;2.40;;
14078;SDS011;7115;50.150;8.568;2023-03-31T05:55:31;6.83;;;2.17;;
14078;SDS011;7115;50.150;8.568;2023-03-31T05:57:58;11.90;;;2.37;;
14078;SDS011;7115;50.150;8.568;2023-03-31T06:00:26;10.70;;;2.73;;
14078;SDS011;7115;50.150;8.568;2023-03-31T06:02:52;7.67;;;2.10;;
14078;SDS011;7115;50.150;8.568;2023-03-31T06:05:21;9.43;;;2.57;;
14078;SDS011;7115;50.150;8.568;2023-03-31T06:07:51;10.50;;;2.43;;
14078;SDS011;7115;50.150;8.568;2023-03-31T06:10:18;11.23;;;2.37;;
14078;SDS011;7115;50.150;8.568;2023-03-31T06:12:45;8.47;;;2.50;;
14078;SDS011;7115;50.150;8.568;2023-03-31T06:15:12;7.83;;;2.53;;
14078;SDS011;7115;50.150;8.568;2023-03-31T06:17:39;9.40;;;2.73;;
14078;SDS011;7115;50.150;8.568;2023-03-31T06:20:06;11.77;;;2.50;;
14078;SDS011;7115;50.150;8.568;2023-03-31T06:22:53;4.93;;;1.90;;
14078;SDS011;7115;50.150;8.568;2023-03-31T06:25:20;4.80;;;1.90;;
14078;SDS011;7115;50.150;8.568;2023-03-31T06:27:47;9.40;;;2.37;;
14078;SDS011;7115;50.150;8.568;2023-03-31T06:30:14;10.17;;;2.83;;
14078;SDS011;7115;50.150;8.568;2023-03-31T06:32:41;9.00;;;2.43;;
14078;SDS011;7115;50.150;8.568;2023-03-31T06:35:08;10.40;;;2.03;;
14078;SDS011;7115;50.150;8.568;2023-03-31T06:37:35;6.80;;;1.90;;
14078;SDS011;7115;50.150;8.568;2023-03-31T06:40:04;4.30;;;2.10;;
14078;SDS011;7115;50.150;8.568;2023-03-31T06:42:32;8.97;;;2.60;;
14078;SDS011;7115;50.150;8.568;2023-03-31T06:45:00;11.57;;;2.50;;
14078;SDS011;7115;50.150;8.568;2023-03-31T06:47:27;7.40;;;2.43;;
14078;SDS011;7115;50.150;8.568;2023-03-31T06:49:53;6.23;;;2.37;;
14078;SDS011;7115;50.150;8.568;2023-03-31T06:52:20;7.73;;;2.57;;
14078;SDS011;7115;50.150;8.568;2023-03-31T06:54:47;6.40;;;2.30;;
14078;SDS011;7115;50.150;8.568;2023-03-31T06:57:16;9.57;;;2.37;;
14078;SDS011;7115;50.150;8.568;2023-03-31T06:59:43;7.47;;;2.47;;
14078;SDS011;7115;50.150;8.568;2023-03-31T07:02:10;10.13;;;2.53;;
14078;SDS011;7115;50.150;8.568;2023-03-31T07:04:37;7.47;;;2.80;;
14078;SDS011;7115;50.150;8.568;2023-03-31T07:07:04;8.53;;;3.33;;
14078;SDS011;7115;50.150;8.568;2023-03-31T07:09:31;12.80;;;3.03;;
14078;SDS011;7115;50.150;8.568;2023-03-31T07:11:58;7.80;;;2.90;;
14078;SDS011;7115;50.150;8.568;2023-03-31T07:14:26;9.33;;;2.40;;
14078;SDS011;7115;50.150;8.568;2023-03-31T07:16:53;8.80;;;3.73;;
14078;SDS011;7115;50.150;8.568;2023-03-31T07:19:20;9.50;;;2.77;;
14078;SDS011;7115;50.150;8.568;2023-03-31T07:21:48;12.70;;;3.37;;
14078;SDS011;7115;50.150;8.568;2023-03-31T07:24:15;7.63;;;2.93;;
14078;SDS011;7115;50.150;8.568;2023-03-31T07:26:42;9.40;;;2.83;;
14078;SDS011;7115;50.150;8.568;2023-03-31T07:29:09;10.47;;;2.90;;
14078;SDS011;7115;50.150;8.568;2023-03-31T07:31:38;12.87;;;3.27;;
14078;SDS011;7115;50.150;8.568;2023-03-31T07:34:05;8.97;;;3.43;;
14078;SDS011;7115;50.150;8.568;2023-03-31T07:36:32;12.10;;;3.27;;
14078;SDS011;7115;50.150;8.568;2023-03-31T07:38:59;9.77;;;3.50;;
14078;SDS011;7115;50.150;8.568;2023-03-31T07:41:27;9.27;;;3.67;;
14078;SDS011;7115;50.150;8.568;2023-03-31T07:43:54;6.97;;;2.97;;
14078;SDS011;7115;50.150;8.568;2023-03-31T07:46:21;7.20;;;3.47;;
14078;SDS011;7115;50.150;8.568;2023-03-31T07:48:52;7.37;;;3.07;;
14078;SDS011;7115;50.150;8.568;2023-03-31T07:51:21;7.53;;;3.17;;
14078;SDS011;7115;50.150;8.568;2023-03-31T07:53:50;6.20;;;2.90;;
14078;SDS011;7115;50.150;8.568;2023-03-31T07:56:18;8.47;;;3.13;;
14078;SDS011;7115;50.150;8.568;2023-03-31T07:58:48;7.97;;;3.53;;
14078;SDS011;7115;50.150;8.568;2023-03-31T08:01:20;10.60;;;3.30;;
14078;SDS011;7115;50.150;8.568;2023-03-31T08:03:53;10.07;;;3.00;;
14078;SDS011;7115;50.150;8.568;2023-03-31T08:06:22;6.33;;;3.00;;
14078;SDS011;7115;50.150;8.568;2023-03-31T08:08:51;8.07;;;2.80;;
14078;SDS011;7115;50.150;8.568;2023-03-31T08:11:18;8.27;;;3.43;;
14078;SDS011;7115;50.150;8.568;2023-03-31T08:13:47;10.90;;;3.33;;
14078;SDS011;7115;50.150;8.568;2023-03-31T08:16:14;6.10;;;2.90;;
14078;SDS011;7115;50.150;8.568;2023-03-31T08:18:41;4.30;;;2.60;;
14078;SDS011;7115;50.150;8.568;2023-03-31T08:21:12;7.00;;;3.07;;
14078;SDS011;7115;50.150;8.568;2023-03-31T08:23:40;7.50;;;2.77;;
14078;SDS011;7115;50.150;8.568;2023-03-31T08:26:10;9.17;;;2.93;;
14078;SDS011;7115;50.150;8.568;2023-03-31T08:28:43;5.80;;;2.80;;
14078;SDS011;7115;50.150;8.568;2023-03-31T08:31:12;6.00;;;2.63;;
14078;SDS011;7115;50.150;8.568;2023-03-31T08:33:42;7.23;;;2.60;;
14078;SDS011;7115;50.150;8.568;2023-03-31T08:36:13;5.83;;;2.80;;
14078;SDS011;7115;50.150;8.568;2023-03-31T08:38:41;4.77;;;2.70;;
14078;SDS011;7115;50.150;8.568;2023-03-31T08:41:20;6.50;;;2.70;;
14078;SDS011;7115;50.150;8.568;2023-03-31T08:43:58;6.67;;;2.30;;
14078;SDS011;7115;50.150;8.568;2023-03-31T08:46:30;5.93;;;2.60;;
14078;SDS011;7115;50.150;8.568;2023-03-31T08:49:01;4.50;;;2.00;;
14078;SDS011;7115;50.150;8.568;2023-03-31T08:51:32;4.70;;;2.17;;
14078;SDS011;7115;50.150;8.568;2023-03-31T08:54:04;6.90;;;2.20;;
14078;SDS011;7115;50.150;8.568;2023-03-31T08:56:40;5.13;;;2.20;;
14078;SDS011;7115;50.150;8.568;2023-03-31T08:59:15;4.53;;;1.73;;
14078;SDS011;7115;50.150;8.568;2023-03-31T09:01:46;5.70;;;1.80;;
14078;SDS011;7115;50.150;8.568;2023-03-31T09:04:31;5.97;;;1.80;;
14078;SDS011;7115;50.150;8.568;2023-03-31T09:07:14;3.47;;;1.57;;
14078;SDS011;7115;50.150;8.568;2023-03-31T09:09:49;3.20;;;1.80;;
14078;SDS011;7115;50.150;8.568;2023-03-31T09:12:24;4.53;;;1.57;;
14078;SDS011;7115;50.150;8.568;2023-03-31T09:15:00;6.33;;;2.33;;
14078;SDS011;7115;50.150;8.568;2023-03-31T09:17:31;4.93;;;1.93;;
14078;SDS011;7115;50.150;8.568;2023-03-31T09:20:02;5.70;;;2.17;;
14078;SDS011;7115;50.150;8.568;2023-03-31T09:22:38;4.57;;;2.17;;
14078;SDS011;7115;50.150;8.568;2023-03-31T09:25:11;4.20;;;2.00;;
14078;SDS011;7115;50.150;8.568;2023-03-31T09:27:42;6.87;;;2.23;;
14078;SDS011;7115;50.150;8.568;2023-03-31T09:30:10;3.93;;;1.90;;
14078;SDS011;7115;50.150;8.568;2023-03-31T09:32:41;4.57;;;1.90;;
14078;SDS011;7115;50.150;8.568;2023-03-31T09:35:13;4.67;;;1.77;;
14078;SDS011;7115;50.150;8.568;2023-03-31T09:37:46;3.93;;;1.90;;
14078;SDS011;7115;50.150;8.568;2023-03-31T09:40:16;6.13;;;1.90;;
14078;SDS011;7115;50.150;8.568;2023-03-31T09:42:46;4.40;;;1.67;;
14078;SDS011;7115;50.150;8.568;2023-03-31T09:45:17;3.00;;;1.63;;
14078;SDS011;7115;50.150;8.568;2023-03-31T09:47:49;3.77;;;2.23;;
14078;SDS011;7115;50.150;8.568;2023-03-31T09:50:19;4.20;;;1.63;;
14078;SDS011;7115;50.150;8.568;2023-03-31T09:52:52;4.50;;;1.60;;
14078;SDS011;7115;50.150;8.568;2023-03-31T09:55:23;5.17;;;1.70;;
14078;SDS011;7115;50.150;8.568;2023-03-31T09:58:05;5.10;;;1.60;;
14078;SDS011;7115;50.150;8.568;2023-03-31T10:00:35;6.70;;;2.00;;
14078;SDS011;7115;50.150;8.568;2023-03-31T10:03:09;3.90;;;1.77;;
14078;SDS011;7115;50.150;8.568;2023-03-31T10:05:46;4.23;;;1.67;;
14078;SDS011;7115;50.150;8.568;2023-03-31T10:08:23;4.23;;;1.93;;
14078;SDS011;7115;50.150;8.568;2023-03-31T10:10:54;5.97;;;1.40;;
14078;SDS011;7115;50.150;8.568;2023-03-31T10:13:24;6.47;;;1.90;;
14078;SDS011;7115;50.150;8.568;2023-03-31T10:16:00;6.37;;;1.67;;
14078;SDS011;7115;50.150;8.568;2023-03-31T10:18:31;7.53;;;1.87;;
14078;SDS011;7115;50.150;8.568;2023-03-31T10:21:01;4.87;;;1.67;;
14078;SDS011;7115;50.150;8.568;2023-03-31T10:23:32;6.73;;;1.43;;
14078;SDS011;7115;50.150;8.568;2023-03-31T10:26:01;6.87;;;1.77;;
14078;SDS011;7115;50.150;8.568;2023-03-31T10:28:30;6.00;;;1.60;;
14078;SDS011;7115;50.150;8.568;2023-03-31T10:31:00;7.20;;;1.87;;
14078;SDS011;7115;50.150;8.568;2023-03-31T10:33:29;8.00;;;1.57;;
14078;SDS011;7115;50.150;8.568;2023-03-31T10:36:01;3.23;;;1.20;;
14078;SDS011;7115;50.150;8.568;2023-03-31T10:38:36;3.87;;;1.10;;
14078;SDS011;7115;50.150;8.568;2023-03-31T10:41:08;3.57;;;0.77;;
14078;SDS011;7115;50.150;8.568;2023-03-31T10:43:36;4.53;;;1.30;;
14078;SDS011;7115;50.150;8.568;2023-03-31T10:46:07;6.37;;;0.90;;
14078;SDS011;7115;50.150;8.568;2023-03-31T10:48:35;4.37;;;0.90;;
14078;SDS011;7115;50.150;8.568;2023-03-31T10:51:05;5.07;;;0.90;;
14078;SDS011;7115;50.150;8.568;2023-03-31T10:53:42;3.93;;;0.93;;
14078;SDS011;7115;50.150;8.568;2023-03-31T10:56:14;5.00;;;1.00;;
14078;SDS011;7115;50.150;8.568;2023-03-31T10:58:54;7.63;;;1.10;;
14078;SDS011;7115;50.150;8.568;2023-03-31T11:01:35;5.23;;;1.00;;
14078;SDS011;7115;50.150;8.568;2023-03-31T11:04:21;4.00;;;1.00;;
14078;SDS011;7115;50.150;8.568;2023-03-31T11:07:10;5.10;;;1.00;;
14078;SDS011;7115;50.150;8.568;2023-03-31T11:09:52;5.60;;;1.10;;
14078;SDS011;7115;50.150;8.568;2023-03-31T11:12:35;8.37;;;1.50;;
14078;SDS011;7115;50.150;8.568;2023-03-31T11:15:13;3.67;;;0.93;;
14078;SDS011;7115;50.150;8.568;2023-03-31T11:17:53;9.13;;;1.70;;
14078;SDS011;7115;50.150;8.568;2023-03-31T11:20:32;4.80;;;0.93;;
14078;SDS011;7115;50.150;8.568;2023-03-31T11:23:10;3.77;;;1.03;;
14078;SDS011;7115;50.150;8.568;2023-03-31T11:25:48;2.97;;;1.00;;
14078;SDS011;7115;50.150;8.568;2023-03-31T11:28:27;6.43;;;1.10;;
14078;SDS011;7115;50.150;8.568;2023-03-31T11:31:13;4.47;;;1.23;;
14078;SDS011;7115;50.150;8.568;2023-03-31T11:34:00;6.13;;;1.03;;
14078;SDS011;7115;50.150;8.568;2023-03-31T11:36:48;5.43;;;0.87;;
14078;SDS011;7115;50.150;8.568;2023-03-31T11:39:27;5.10;;;1.10;;
14078;SDS011;7115;50.150;8.568;2023-03-31T11:42:07;2.30;;;1.00;;
14078;SDS011;7115;50.150;8.568;2023-03-31T11:44:41;7.40;;;1.00;;
14078;SDS011;7115;50.150;8.568;2023-03-31T11:47:12;4.87;;;1.27;;
14078;SDS011;7115;50.150;8.568;2023-03-31T11:49:43;3.50;;;1.00;;
14078;SDS011;7115;50.150;8.568;2023-03-31T11:52:14;5.63;;;1.37;;
14078;SDS011;7115;50.150;8.568;2023-03-31T11:54:45;4.70;;;1.13;;
14078;SDS011;7115;50.150;8.568;2023-03-31T11:57:20;7.33;;;2.13;;
14078;SDS011;7115;50.150;8.568;2023-03-31T11:59:54;6.37;;;1.30;;
14078;SDS011;7115;50.150;8.568;2023-03-31T12:02:26;8.80;;;1.63;;
14078;SDS011;7115;50.150;8.568;2023-03-31T12:05:04;6.80;;;1.63;;
14078;SDS011;7115;50.150;8.568;2023-03-31T12:07:35;6.67;;;1.43;;
14078;SDS011;7115;50.150;8.568;2023-03-31T12:10:11;6.70;;;1.77;;
14078;SDS011;7115;50.150;8.568;2023-03-31T12:12:46;8.10;;;1.50;;
14078;SDS011;7115;50.150;8.568;2023-03-31T12:15:18;5.67;;;1.57;;
14078;SDS011;7115;50.150;8.568;2023-03-31T12:17:49;8.13;;;1.53;;
14078;SDS011;7115;50.150;8.568;2023-03-31T12:20:24;7.83;;;1.30;;
14078;SDS011;7115;50.150;8.568;2023-03-31T12:22:56;5.83;;;1.80;;
14078;SDS011;7115;50.150;8.568;2023-03-31T12:25:37;9.57;;;1.30;;
14078;SDS011;7115;50.150;8.568;2023-03-31T12:28:12;7.10;;;1.07;;
14078;SDS011;7115;50.150;8.568;2023-03-31T12:30:41;2.63;;;0.70;;
14078;SDS011;7115;50.150;8.568;2023-03-31T12:33:12;2.03;;;0.80;;
14078;SDS011;7115;50.150;8.568;2023-03-31T12:35:46;3.93;;;0.70;;
14078;SDS011;7115;50.150;8.568;2023-03-31T12:38:45;2.37;;;0.70;;
14078;SDS011;7115;50.150;8.568;2023-03-31T12:41:23;5.00;;;0.90;;
14078;SDS011;7115;50.150;8.568;2023-03-31T12:46:59;6.40;;;1.27;;
14078;SDS011;7115;50.150;8.568;2023-03-31T12:49:40;3.03;;;0.77;;
14078;SDS011;7115;50.150;8.568;2023-03-31T12:52:17;5.53;;;0.90;;
14078;SDS011;7115;50.150;8.568;2023-03-31T12:55:03;3.10;;;0.80;;
14078;SDS011;7115;50.150;8.568;2023-03-31T12:57:50;6.33;;;0.90;;
14078;SDS011;7115;50.150;8.568;2023-03-31T13:00:20;4.10;;;0.53;;
14078;SDS011;7115;50.150;8.568;2023-03-31T13:02:50;4.50;;;1.07;;
14078;SDS011;7115;50.150;8.568;2023-03-31T13:05:56;4.90;;;1.03;;
14078;SDS011;7115;50.150;8.568;2023-03-31T13:11:16;4.70;;;1.10;;
14078;SDS011;7115;50.150;8.568;2023-03-31T13:13:46;4.27;;;1.00;;
14078;SDS011;7115;50.150;8.568;2023-03-31T13:16:45;4.53;;;1.27;;
14078;SDS011;7115;50.150;8.568;2023-03-31T13:19:23;5.83;;;0.90;;
14078;SDS011;7115;50.150;8.568;2023-03-31T13:21:53;4.50;;;0.83;;
14078;SDS011;7115;50.150;8.568;2023-03-31T13:24:21;7.70;;;1.00;;
14078;SDS011;7115;50.150;8.568;2023-03-31T13:26:49;10.60;;;2.07;;
14078;SDS011;7115;50.150;8.568;2023-03-31T13:29:22;5.97;;;1.47;;
14078;SDS011;7115;50.150;8.568;2023-03-31T13:32:16;6.27;;;1.20;;
14078;SDS011;7115;50.150;8.568;2023-03-31T13:34:50;7.57;;;1.37;;
14078;SDS011;7115;50.150;8.568;2023-03-31T13:40:32;7.50;;;1.50;;
14078;SDS011;7115;50.150;8.568;2023-03-31T13:49:26;4.37;;;0.90;;
14078;SDS011;7115;50.150;8.568;2023-03-31T13:52:27;2.80;;;0.73;;
14078;SDS011;7115;50.150;8.568;2023-03-31T14:01:13;1.60;;;0.33;;
14078;SDS011;7115;50.150;8.568;2023-03-31T14:04:02;2.27;;;0.33;;
14078;SDS011;7115;50.150;8.568;2023-03-31T14:06:47;2.80;;;0.40;;
14078;SDS011;7115;50.150;8.568;2023-03-31T14:09:20;1.23;;;0.40;;
14078;SDS011;7115;50.150;8.568;2023-03-31T14:11:51;4.17;;;0.67;;
14078;SDS011;7115;50.150;8.568;2023-03-31T14:14:18;2.73;;;0.60;;
14078;SDS011;7115;50.150;8.568;2023-03-31T14:16:46;1.10;;;0.40;;
14078;SDS011;7115;50.150;8.568;2023-03-31T14:22:15;2.40;;;0.60;;
14078;SDS011;7115;50.150;8.568;2023-03-31T14:24:49;2.27;;;0.70;;
14078;SDS011;7115;50.150;8.568;2023-03-31T14:27:26;0.90;;;0.43;;
14078;SDS011;7115;50.150;8.568;2023-03-31T14:30:05;3.40;;;0.57;;
14078;SDS011;7115;50.150;8.568;2023-03-31T14:32:39;4.60;;;0.67;;
14078;SDS011;7115;50.150;8.568;2023-03-31T14:35:22;1.93;;;0.73;;
14078;SDS011;7115;50.150;8.568;2023-03-31T14:37:55;3.43;;;1.87;;
14078;SDS011;7115;50.150;8.568;2023-03-31T14:40:22;3.53;;;1.73;;
14078;SDS011;7115;50.150;8.568;2023-03-31T14:42:50;3.37;;;0.80;;
14078;SDS011;7115;50.150;8.568;2023-03-31T14:45:19;4.90;;;0.90;;
14078;SDS011;7115;50.150;8.568;2023-03-31T14:47:53;1.47;;;0.60;;
14078;SDS011;7115;50.150;8.568;2023-03-31T14:50:21;1.63;;;0.70;;
14078;SDS011;7115;50.150;8.568;2023-03-31T14:52:56;4.57;;;0.90;;
14078;SDS011;7115;50.150;8.568;2023-03-31T14:55:23;3.10;;;1.07;;
14078;SDS011;7115;50.150;8.568;2023-03-31T14:58:10;3.43;;;0.93;;
14078;SDS011;7115;50.150;8.568;2023-03-31T15:00:41;2.13;;;0.70;;
14078;SDS011;7115;50.150;8.568;2023-03-31T15:03:11;4.50;;;0.77;;
14078;SDS011;7115;50.150;8.568;2023-03-31T15:05:40;3.70;;;0.67;;
14078;SDS011;7115;50.150;8.568;2023-03-31T15:08:12;7.37;;;0.77;;
14078;SDS011;7115;50.150;8.568;2023-03-31T15:10:42;6.13;;;1.30;;
14078;SDS011;7115;50.150;8.568;2023-03-31T15:13:15;3.93;;;0.80;;
14078;SDS011;7115;50.150;8.568;2023-03-31T15:15:45;3.53;;;1.13;;
14078;SDS011;7115;50.150;8.568;2023-03-31T15:18:13;1.60;;;0.63;;
14078;SDS011;7115;50.150;8.568;2023-03-31T15:20:41;1.97;;;0.57;;
14078;SDS011;7115;50.150;8.568;2023-03-31T15:23:21;4.83;;;0.87;;
14078;SDS011;7115;50.150;8.568;2023-03-31T15:25:54;2.17;;;0.40;;
14078;SDS011;7115;50.150;8.568;2023-03-31T15:28:23;1.27;;;0.30;;
14078;SDS011;7115;50.150;8.568;2023-03-31T15:30:56;0.80;;;0.27;;
14078;SDS011;7115;50.150;8.568;2023-03-31T15:33:35;4.40;;;1.47;;
14078;SDS011;7115;50.150;8.568;2023-03-31T15:36:07;6.10;;;2.10;;
14078;SDS011;7115;50.150;8.568;2023-03-31T15:38:37;2.13;;;0.50;;
14078;SDS011;7115;50.150;8.568;2023-03-31T15:41:10;2.20;;;0.70;;
14078;SDS011;7115;50.150;8.568;2023-03-31T15:43:41;1.80;;;0.60;;
14078;SDS011;7115;50.150;8.568;2023-03-31T15:46:15;4.53;;;0.83;;
14078;SDS011;7115;50.150;8.568;2023-03-31T15:48:48;3.63;;;0.67;;
14078;SDS011;7115;50.150;8.568;2023-03-31T15:51:19;3.73;;;0.87;;
14078;SDS011;7115;50.150;8.568;2023-03-31T15:53:52;3.83;;;0.60;;
14078;SDS011;7115;50.150;8.568;2023-03-31T15:56:23;3.80;;;0.80;;
14078;SDS011;7115;50.150;8.568;2023-03-31T15:58:56;2.23;;;0.87;;